KEPH/EPH METAR and TAF weather

Enter ICAO airport designator
Station Type Date Time Source
KEPH METAR 2022/08/16 17:53 UTC NOAA

KEPH 161753Z AUTO 00000KT 10SM CLR 29/07 A2999 RMK AO2 SLP146 T02940067 10294 20156 58001


Station Type Date Time Source
KEPH Decoded METAR 2022/08/16 17:53 UTC NOAA

EPHRATA MUNICIPAL AIRPORT, WA, United States (KEPH) 47-18N 119-31W 383M
Aug 16, 2022 - 01:53 PM EDT / 2022.08.16 1753 UTC
Wind: Calm:0
Visibility: 10 mile(s):0
Sky conditions: clear
Temperature: 84.9 F (29.4 C)
Dew Point: 44.1 F (6.7 C)
Relative Humidity: 23%
Pressure (altimeter): 29.99 in. Hg (1015 hPa)
Pressure tendency: 0.00 inches (0.1 hPa) lower than three hours ago
ob: KEPH 161753Z AUTO 00000KT 10SM CLR 29/07 A2999 RMK AO2 SLP146 T02940067 10294 20156 58001
cycle: 18

Station Type Date Time Source
KEPH TAF UTC NOAA

Error!

Example: see airport list